Time;durP1;ratioP1;P1;durP2;ratioP2;P2;SDS_P1;SDS_P2;PMS_P1;PMS_P2;Temp;Humidity;BMP_temperature;BMP_pressure;BME280_temperature;BME280_humidity;BME280_pressure;Samples;Min_cycle;Max_cycle;Signal;HPM_P1;HPM_P2
2021/10/23 00:09:13;;;;;;;3.20;1.30;;;;;;;6.08;68.85;98494.33;462344;1192;110769;-41
2021/10/23 00:19:20;;;;;;;1.00;0.90;;;;;;;6.03;69.94;98504.44;462556;1190;108475;-41
2021/10/23 00:29:27;;;;;;;2.70;2.10;;;;;;;6.06;70.42;98523.17;461876;1190;97267;-41
2021/10/23 00:39:35;;;;;;;1.40;0.50;;;;;;;6.11;70.61;98536.45;463307;1191;110726;-41
2021/10/23 00:49:42;;;;;;;3.10;1.00;;;;;;;6.08;71.41;98548.93;463116;1190;107110;-41
2021/10/23 00:59:48;;;;;;;2.40;1.00;;;;;;;5.94;71.16;98557.25;463347;1188;97767;-41
2021/10/23 01:09:56;;;;;;;2.70;0.80;;;;;;;5.77;70.99;98564.39;463959;1171;110810;-40
2021/10/23 01:20:04;;;;;;;1.20;0.60;;;;;;;5.69;71.03;98576.13;462921;1190;108575;-43
2021/10/23 01:30:14;;;;;;;2.20;0.50;;;;;;;5.71;71.26;98589.54;462207;1190;97932;-41
2021/10/23 01:40:25;;;;;;;2.30;0.90;;;;;;;5.69;71.02;98614.96;462362;1190;110790;-41
2021/10/23 01:50:32;;;;;;;6.10;2.00;;;;;;;5.65;70.66;98611.99;462150;1190;108471;-42
2021/10/23 02:00:39;;;;;;;1.50;0.70;;;;;;;5.48;70.48;98632.88;462001;1190;96372;-40
2021/10/23 02:10:47;;;;;;;1.30;1.00;;;;;;;5.51;70.95;98640.33;461987;1190;97252;-41
2021/10/23 02:20:55;;;;;;;3.40;0.80;;;;;;;5.60;71.14;98647.25;462614;1190;108433;-41
2021/10/23 02:31:03;;;;;;;2.80;0.80;;;;;;;5.68;71.38;98649.34;462139;1193;98231;-41
2021/10/23 02:41:11;;;;;;;2.40;1.00;;;;;;;5.61;71.94;98653.27;462450;1189;110730;-42
2021/10/23 02:51:18;;;;;;;7.90;1.40;;;;;;;5.48;72.04;98675.13;462108;1190;108308;-41
2021/10/23 03:01:25;;;;;;;4.10;1.00;;;;;;;5.37;72.18;98693.55;462257;1190;97348;-41
2021/10/23 03:11:33;;;;;;;5.00;1.60;;;;;;;5.32;72.92;98703.98;462513;1191;109971;-41
2021/10/23 03:21:41;;;;;;;2.50;0.60;;;;;;;5.33;72.49;98720.24;461968;1190;108497;-42
2021/10/23 03:31:48;;;;;;;7.50;1.50;;;;;;;5.33;72.76;98736.45;462705;1190;98333;-43
2021/10/23 03:41:55;;;;;;;8.60;1.80;;;;;;;5.32;72.78;98748.79;462114;1197;108402;-41
2021/10/23 03:52:02;;;;;;;6.30;1.60;;;;;;;5.22;72.65;98765.84;462446;1190;96396;-41
2021/10/23 04:02:09;;;;;;;3.70;1.50;;;;;;;5.16;72.94;98779.86;462271;1190;97661;-41
2021/10/23 04:12:17;;;;;;;5.90;1.80;;;;;;;5.18;72.93;98779.40;462241;1190;108538;-41
2021/10/23 04:22:25;;;;;;;10.10;1.20;;;;;;;5.29;72.81;98781.49;462515;1190;97289;-41
2021/10/23 04:32:32;;;;;;;4.60;1.10;;;;;;;5.37;72.75;98786.67;462381;1189;110922;-42
2021/10/23 04:42:39;;;;;;;8.30;2.00;;;;;;;5.26;73.21;98799.67;462015;1193;108375;-41
2021/10/23 04:52:46;;;;;;;4.20;1.80;;;;;;;5.17;72.96;98808.50;462295;1190;96720;-41
2021/10/23 05:02:54;;;;;;;5.70;1.50;;;;;;;5.07;72.89;98808.64;461955;1190;110699;-41
2021/10/23 05:13:02;;;;;;;5.80;1.50;;;;;;;4.86;72.91;98818.34;462201;1190;108297;-41
2021/10/23 05:23:09;;;;;;;13.00;1.90;;;;;;;4.82;72.90;98827.70;462578;1190;97833;-40
2021/10/23 05:33:17;;;;;;;6.40;1.60;;;;;;;4.74;72.95;98840.80;462380;1190;110776;-41
2021/10/23 05:43:25;;;;;;;8.10;3.00;;;;;;;4.57;73.27;98850.67;462574;1189;108904;-41
2021/10/23 05:53:32;;;;;;;7.90;2.50;;;;;;;4.61;73.44;98860.94;462157;1183;97697;-40
2021/10/23 06:03:40;;;;;;;7.40;2.30;;;;;;;4.61;73.57;98872.30;462414;1189;110863;-41
2021/10/23 06:13:47;;;;;;;13.40;4.20;;;;;;;4.70;73.83;98885.52;462337;1190;108509;-41
2021/10/23 06:23:53;;;;;;;17.70;2.20;;;;;;;4.93;73.78;98892.86;462333;1189;97707;-43
2021/10/23 06:34:01;;;;;;;9.50;3.20;;;;;;;5.17;74.02;98899.52;462847;1190;108475;-40
2021/10/23 06:44:08;;;;;;;13.40;3.00;;;;;;;5.45;73.90;98911.88;462437;1190;96324;-41
2021/10/23 06:54:16;;;;;;;11.90;1.90;;;;;;;5.85;73.74;98924.12;462282;1190;110743;-41
2021/10/23 07:04:23;;;;;;;6.70;1.40;;;;;;;6.55;73.41;98923.20;462362;1190;107628;-41
2021/10/23 07:14:31;;;;;;;9.70;3.40;;;;;;;7.35;72.42;98936.02;462366;1190;97662;-40
2021/10/23 07:24:39;;;;;;;12.80;5.80;;;;;;;8.64;71.52;98934.85;462654;1190;109810;-41
2021/10/23 07:34:46;;;;;;;22.10;10.30;;;;;;;9.35;69.36;98944.44;462359;1190;108771;-42
2021/10/23 07:55:00;;;;;;;9.90;3.80;;;;;;;8.05;68.15;98975.40;462866;1190;97672;-41
2021/10/23 08:05:07;;;;;;;10.20;3.20;;;;;;;8.54;68.12;98987.61;462425;1190;110818;-41
2021/10/23 08:15:14;;;;;;;12.30;3.90;;;;;;;8.56;67.94;98993.16;462451;1190;108547;-41
2021/10/23 08:25:23;;;;;;;7.00;3.10;;;;;;;8.74;67.33;99004.17;462420;1189;97680;-41
2021/10/23 08:35:30;;;;;;;19.00;6.60;;;;;;;8.95;67.14;99020.23;462462;1189;110836;-41
2021/10/23 08:45:36;;;;;;;16.20;3.80;;;;;;;8.79;66.79;99034.47;462720;1189;109970;-43
2021/10/23 08:55:43;;;;;;;12.50;4.40;;;;;;;8.91;66.76;99038.44;462533;1190;108554;-43
2021/10/23 09:05:50;;;;;;;12.60;2.40;;;;;;;9.33;66.27;99049.77;462698;1190;97660;-42
2021/10/23 09:15:58;;;;;;;11.40;3.70;;;;;;;9.32;65.69;99065.36;462481;1189;108927;-42
2021/10/23 09:26:06;;;;;;;13.00;4.20;;;;;;;9.13;65.12;99066.59;462608;1190;98272;-41
2021/10/23 09:36:23;;;;;;;11.40;3.20;;;;;;;9.62;64.68;99071.58;462435;1189;111256;-41
2021/10/23 09:46:31;;;;;;;7.80;3.10;;;;;;;10.35;64.06;99079.67;462598;1189;108566;-41
2021/10/23 09:56:39;;;;;;;17.20;4.80;;;;;;;10.29;63.06;99078.96;462370;1190;96755;-42
2021/10/23 10:06:46;;;;;;;11.50;2.60;;;;;;;10.64;62.89;99083.64;462701;1189;110762;-41
2021/10/23 10:16:54;;;;;;;10.40;2.00;;;;;;;10.56;61.63;99083.77;462264;1189;108609;-43
2021/10/23 10:27:00;;;;;;;12.90;3.20;;;;;;;10.09;60.05;99091.21;462516;1190;98340;-41
2021/10/23 10:48:12;;;;;;;16.10;3.90;;;;;;;9.61;60.72;99108.27;462640;1190;108512;-42
2021/10/23 10:58:21;;;;;;;13.30;2.80;;;;;;;9.73;60.68;99109.10;462909;1174;97773;-41
2021/10/23 11:08:28;;;;;;;17.80;3.10;;;;;;;9.89;60.93;99106.34;462299;1191;110626;-41
2021/10/23 11:18:36;;;;;;;12.60;2.20;;;;;;;10.24;60.72;99103.80;462697;1190;108511;-41
2021/10/23 11:28:43;;;;;;;12.60;3.60;;;;;;;10.36;60.28;99112.05;462437;1197;97827;-41
2021/10/23 11:38:54;;;;;;;12.90;4.10;;;;;;;9.84;59.64;99114.52;462856;1190;110331;-42
2021/10/23 11:59:06;;;;;;;16.30;3.50;;;;;;;9.86;59.99;99125.19;462913;1190;98353;-41
2021/10/23 12:09:23;;;;;;;10.00;2.40;;;;;;;9.56;59.78;99143.55;462190;1190;110755;-41
2021/10/23 12:19:35;;;;;;;8.70;1.70;;;;;;;9.21;60.22;99136.74;462159;1190;108657;-41
2021/10/23 12:29:40;;;;;;;9.20;3.10;;;;;;;9.21;60.78;99132.35;462364;1190;96688;-40
2021/10/23 12:39:48;;;;;;;10.70;3.60;;;;;;;9.36;60.73;99129.21;462460;1189;97771;-41
2021/10/23 12:49:54;;;;;;;13.00;3.40;;;;;;;9.65;60.60;99139.28;462973;1189;110594;-40
2021/10/23 13:00:02;;;;;;;12.90;3.50;;;;;;;9.95;60.53;99137.29;462183;1190;108484;-40
2021/10/23 13:10:12;;;;;;;10.20;3.40;;;;;;;9.71;60.87;99145.70;462755;1189;97779;-42
2021/10/23 13:20:20;;;;;;;7.20;2.10;;;;;;;8.33;63.38;99228.77;462296;1189;98376;-42
2021/10/23 13:30:25;;;;;;;3.80;2.00;;;;;;;6.37;66.63;99229.52;463011;1189;110722;-40
2021/10/23 13:40:31;;;;;;;5.50;1.80;;;;;;;6.68;67.43;99231.36;462539;1190;108327;-41
2021/10/23 13:50:38;;;;;;;13.50;5.00;;;;;;;6.99;67.51;99237.42;462861;1189;97999;-40
2021/10/23 14:00:46;;;;;;;16.00;6.90;;;;;;;7.08;67.54;99240.82;462264;1189;108490;-41
2021/10/23 14:10:54;;;;;;;23.80;9.80;;;;;;;7.13;67.78;99241.22;462433;1189;98349;-41
2021/10/23 14:21:03;;;;;;;22.10;11.10;;;;;;;7.18;67.71;99251.85;462294;1190;97767;-41
2021/10/23 14:31:14;;;;;;;16.50;8.70;;;;;;;7.15;67.75;99260.66;461684;1190;110801;-41
2021/10/23 14:41:21;;;;;;;18.50;7.20;;;;;;;7.13;68.15;99268.16;462658;1189;108480;-42
2021/10/23 14:51:28;;;;;;;21.70;11.40;;;;;;;7.16;68.37;99281.94;462373;1189;96371;-41
2021/10/23 15:01:36;;;;;;;27.20;14.20;;;;;;;7.07;68.62;99294.93;462411;1190;108575;-41
2021/10/23 15:11:44;;;;;;;20.00;9.80;;;;;;;6.88;68.73;99308.04;462352;1192;96747;-40
2021/10/23 15:21:52;;;;;;;25.80;15.30;;;;;;;6.65;68.92;99323.77;462596;1190;109837;-41
2021/10/23 15:31:59;;;;;;;20.60;12.10;;;;;;;6.61;69.18;99347.98;462083;1191;108452;-41
2021/10/23 15:42:11;;;;;;;27.80;11.00;;;;;;;6.60;69.29;99355.08;462748;1189;97698;-40
2021/10/23 16:02:28;;;;;;;30.40;17.30;;;;;;;6.66;69.74;99385.60;462593;1189;109184;-41
2021/10/23 16:12:37;;;;;;;33.30;15.10;;;;;;;6.49;69.62;99398.95;462095;1189;97810;-40
2021/10/23 16:32:51;;;;;;;21.30;8.90;;;;;;;6.31;69.98;99430.95;462471;1190;108524;-41
2021/10/23 16:42:58;;;;;;;18.70;8.30;;;;;;;6.43;70.22;99451.38;462593;1189;97914;-41
2021/10/23 16:53:06;;;;;;;37.90;16.30;;;;;;;6.56;70.27;99472.66;462408;1189;110910;-42
2021/10/23 17:03:13;;;;;;;30.00;15.70;;;;;;;6.52;70.24;99491.54;462282;1192;107403;-42
2021/10/23 17:13:19;;;;;;;37.70;14.20;;;;;;;6.34;70.20;99505.69;462301;1190;98368;-43
2021/10/23 17:23:29;;;;;;;38.80;13.10;;;;;;;6.24;70.53;99512.73;462335;1190;97648;-43
2021/10/23 17:33:35;;;;;;;28.10;12.80;;;;;;;6.12;70.58;99536.10;462558;1190;109482;-43
2021/10/23 17:43:44;;;;;;;18.30;8.00;;;;;;;6.21;70.88;99552.41;462534;1190;97692;-41
2021/10/23 17:53:52;;;;;;;27.40;8.60;;;;;;;6.30;71.09;99555.73;462697;1190;110729;-41
2021/10/23 18:03:58;;;;;;;26.40;12.60;;;;;;;6.20;71.06;99559.51;462466;1190;108530;-41
2021/10/23 18:14:08;;;;;;;23.30;7.40;;;;;;;5.95;71.09;99574.52;462792;1189;97801;-41
2021/10/23 18:24:16;;;;;;;21.10;9.00;;;;;;;5.77;71.34;99592.88;462469;1190;110879;-41
2021/10/23 18:34:26;;;;;;;22.20;7.90;;;;;;;5.71;71.33;99602.25;462687;1190;108913;-41
2021/10/23 18:54:42;;;;;;;21.40;8.30;;;;;;;5.62;71.30;99624.86;462260;1189;110242;-41
2021/10/23 19:04:49;;;;;;;19.20;8.10;;;;;;;5.49;71.52;99643.11;462489;1190;108526;-41
2021/10/23 19:14:57;;;;;;;21.30;8.80;;;;;;;5.46;71.66;99657.02;462184;1190;96389;-40
2021/10/23 19:25:04;;;;;;;14.50;7.50;;;;;;;5.51;71.63;99673.46;462521;1190;110737;-40
2021/10/23 19:35:12;;;;;;;18.90;7.70;;;;;;;5.59;71.75;99681.84;462437;1191;108523;-45
2021/10/23 19:45:19;;;;;;;21.10;8.80;;;;;;;5.63;71.76;99689.98;462223;1190;97261;-41
2021/10/23 19:55:26;;;;;;;21.40;8.50;;;;;;;5.53;71.74;99695.41;462803;1190;111107;-42
2021/10/23 20:15:39;;;;;;;27.40;10.70;;;;;;;4.79;71.91;99718.60;462619;1190;108154;-41
2021/10/23 20:25:47;;;;;;;16.90;8.10;;;;;;;4.51;71.79;99728.15;462390;1190;97324;-41
2021/10/23 20:35:53;;;;;;;21.10;9.80;;;;;;;4.34;72.03;99737.64;462719;1190;110745;-42
2021/10/23 20:46:01;;;;;;;20.50;7.40;;;;;;;4.34;72.47;99745.13;462653;1190;108588;-41
2021/10/23 20:56:09;;;;;;;27.20;9.10;;;;;;;4.36;72.72;99761.04;462352;1189;98346;-41
2021/10/23 21:06:17;;;;;;;23.00;8.00;;;;;;;4.28;72.79;99771.36;462314;1177;98343;-40
2021/10/23 21:16:24;;;;;;;17.10;7.50;;;;;;;4.12;72.82;99777.69;462521;1190;111320;-41
2021/10/23 21:26:32;;;;;;;16.10;4.90;;;;;;;4.09;73.02;99778.70;462141;1190;107937;-40
2021/10/23 21:36:41;;;;;;;14.20;6.60;;;;;;;4.24;73.35;99789.48;462362;1189;97674;-41
2021/10/23 21:46:48;;;;;;;20.20;6.30;;;;;;;4.37;73.39;99794.06;462553;1190;111214;-42
2021/10/23 21:56:56;;;;;;;13.60;5.30;;;;;;;4.39;73.65;99800.29;462554;1190;108660;-40
2021/10/23 22:17:10;;;;;;;20.80;7.20;;;;;;;4.21;73.67;99819.59;462348;1190;110890;-41
2021/10/23 22:27:18;;;;;;;21.40;8.30;;;;;;;4.04;73.66;99821.11;462739;1190;108541;-41
2021/10/23 22:37:25;;;;;;;20.70;7.00;;;;;;;3.86;73.66;99825.89;462235;1189;108186;-41
2021/10/23 22:47:31;;;;;;;12.00;6.00;;;;;;;3.76;73.62;99837.17;462594;1190;97665;-40
2021/10/23 22:57:39;;;;;;;14.30;6.40;;;;;;;3.75;73.85;99848.12;461910;1190;108536;-41
2021/10/23 23:07:46;;;;;;;16.50;7.70;;;;;;;3.85;74.13;99852.37;462714;1190;97680;-41
2021/10/23 23:17:53;;;;;;;18.00;7.80;;;;;;;3.91;74.41;99861.23;462381;1190;97686;-41
2021/10/23 23:28:01;;;;;;;20.50;7.20;;;;;;;3.93;74.34;99867.14;462833;1190;110300;-40
2021/10/23 23:38:08;;;;;;;12.50;5.70;;;;;;;3.91;74.29;99879.77;462350;1190;108544;-41
2021/10/23 23:48:16;;;;;;;19.90;7.70;;;;;;;3.84;74.26;99887.69;462674;1190;97285;-41
2021/10/23 23:58:23;;;;;;;16.10;7.70;;;;;;;3.75;74.35;99906.01;462240;1190;110691;-41
